Granby Valley, Vermont
Current Conditions -  °F | °C
As of 5:55 PM on Sunday 21 Dec 2014 (Local Time) from KCDA Reporting Station
Overcast Overcast  
Wind Chill: 25°   Ceiling: 1400
Heat Index: 25°   Visibility: 10mi
Dew Point: 20°   Wind: 0mph
Humidity: 83%   Direction: NA
Pressure: 30.31"   Gusts: NA
Location:  44.5627°N, 71.7775°W
Report Text: KCDA 212255Z AUTO 00000KT 10SM SCT010 BKN014 OVC019 M04/M06 A3031 RMK AO2 T10401065
Loading
Personal Weather Stations






























Interactive Weather Map New forecast layout! Learn more

10-Day Weather Forecast

Advertisements
Track Severe Weather on mobile